KCMY/CMY METAR and TAF weather

Enter ICAO airport designator
Station Type Date Time Source
KCMY METAR 2019/05/23 18:55 UTC NOAA

KCMY 231855Z AUTO 28011G18KT 10SM BKN036 BKN044 17/09 A3004 RMK AO2 T01710089


Station Type Date Time Source
KCMY Decoded METAR 2019/05/23 18:55 UTC NOAA

Sparta, Sparta / Fort McCoy Airport, WI, United States (KCMY) 43-57-30N 090-44-16W
May 23, 2019 - 02:55 PM EDT / 2019.05.23 1855 UTC
Wind: from the W (280 degrees) at 13 MPH (11 KT) gusting to 21 MPH (18 KT):0
Visibility: 10 mile(s):0
Sky conditions: mostly cloudy
Temperature: 62.8 F (17.1 C)
Dew Point: 48.0 F (8.9 C)
Relative Humidity: 58%
Pressure (altimeter): 30.04 in. Hg (1017 hPa)
ob: KCMY 231855Z AUTO 28011G18KT 10SM BKN036 BKN044 17/09 A3004 RMK AO2 T01710089
cycle: 19

Station Type Date Time Source
KCMY TAF UTC NOAA

Error!

Example: see airport list